createdAt,value
2023-01-13T00:00:09.648Z,57.51
2023-01-13T00:02:36.284Z,59.03
2023-01-13T00:05:03.849Z,57.55
2023-01-13T00:07:30.476Z,57.64
2023-01-13T00:09:57.094Z,58.60
2023-01-13T00:12:23.645Z,58.83
2023-01-13T00:14:50.216Z,58.65
2023-01-13T00:17:16.767Z,59.07
2023-01-13T00:19:43.284Z,57.63
2023-01-13T00:22:09.896Z,57.16
2023-01-13T00:24:36.449Z,57.97
2023-01-13T00:27:03.135Z,58.09
2023-01-13T00:29:29.732Z,58.04
2023-01-13T00:31:56.365Z,58.11
2023-01-13T00:34:22.923Z,56.62
2023-01-13T00:36:49.470Z,56.61
2023-01-13T00:39:16.111Z,56.78
2023-01-13T00:42:01.335Z,56.22
2023-01-13T00:44:27.857Z,56.46
2023-01-13T00:46:54.460Z,55.64
2023-01-13T00:49:20.997Z,55.83
2023-01-13T00:51:47.514Z,56.23
2023-01-13T00:54:14.035Z,55.39
2023-01-13T00:56:41.520Z,57.44
2023-01-13T00:59:11.484Z,56.92
2023-01-13T01:01:38.540Z,56.26
2023-01-13T01:04:05.487Z,57.14
2023-01-13T01:06:32.070Z,55.54
2023-01-13T01:08:58.780Z,54.83
2023-01-13T01:11:31.062Z,55.70
2023-01-13T01:14:00.185Z,56.12
2023-01-13T01:16:28.686Z,56.62
2023-01-13T01:18:55.692Z,55.49
2023-01-13T01:21:24.244Z,54.61
2023-01-13T01:23:51.249Z,55.04
2023-01-13T01:26:20.328Z,56.56
2023-01-13T01:28:47.332Z,58.09
2023-01-13T01:31:23.276Z,57.52
2023-01-13T01:33:50.997Z,57.17
2023-01-13T01:36:20.190Z,56.85
2023-01-13T01:38:47.706Z,54.86
2023-01-13T01:41:19.897Z,56.52
2023-01-13T01:44:05.996Z,56.25
2023-01-13T01:46:40.882Z,57.10
2023-01-13T01:49:21.579Z,56.15
2023-01-13T01:52:02.201Z,56.18
2023-01-13T01:54:38.515Z,58.66
2023-01-13T01:57:08.330Z,58.70
2023-01-13T01:59:36.539Z,57.61
2023-01-13T02:02:03.311Z,58.08
2023-01-13T02:04:34.651Z,58.86
2023-01-13T02:07:02.851Z,58.93
2023-01-13T02:09:30.473Z,59.02
2023-01-13T02:12:15.788Z,59.29
2023-01-13T02:14:43.144Z,58.47
2023-01-13T02:17:31.975Z,58.62
2023-01-13T02:20:12.590Z,58.13
2023-01-13T02:22:52.040Z,58.70
2023-01-13T02:25:55.937Z,58.12
2023-01-13T02:29:08.544Z,56.62
2023-01-13T02:31:43.705Z,58.71
2023-01-13T02:34:13.486Z,58.90
2023-01-13T02:36:52.803Z,57.95
2023-01-13T02:39:28.105Z,56.41
2023-01-13T02:42:40.550Z,57.46
2023-01-13T02:45:13.085Z,57.93
2023-01-13T02:47:42.415Z,59.10
2023-01-13T02:50:17.476Z,59.79
2023-01-13T02:52:50.400Z,58.38
2023-01-13T02:55:22.145Z,57.89
2023-01-13T02:57:51.109Z,58.98
2023-01-13T03:00:19.270Z,60.54
2023-01-13T03:02:48.014Z,62.23
2023-01-13T03:05:16.769Z,60.72
2023-01-13T03:08:09.549Z,60.03
2023-01-13T03:11:06.427Z,62.47
2023-01-13T03:13:56.899Z,63.20
2023-01-13T03:16:51.296Z,63.19
2023-01-13T03:19:48.674Z,63.40
2023-01-13T03:22:22.846Z,63.24
2023-01-13T03:25:00.971Z,63.64
2023-01-13T03:27:37.108Z,62.78
2023-01-13T03:30:07.416Z,62.79
2023-01-13T03:32:38.033Z,60.16
2023-01-13T03:35:21.641Z,60.68
2023-01-13T03:37:58.281Z,61.23
2023-01-13T03:40:28.894Z,61.21
2023-01-13T03:43:21.152Z,60.34
2023-01-13T03:45:51.648Z,61.60
2023-01-13T03:48:20.971Z,60.46
2023-01-13T03:50:52.117Z,61.74
2023-01-13T03:53:26.730Z,62.15
2023-01-13T03:55:59.515Z,62.00
2023-01-13T03:58:33.755Z,60.18
2023-01-13T04:01:10.040Z,60.86
2023-01-13T04:04:03.147Z,61.19
2023-01-13T04:06:51.649Z,63.80
2023-01-13T04:09:31.043Z,63.46
2023-01-13T04:12:25.607Z,62.61
2023-01-13T04:14:53.523Z,62.75
2023-01-13T04:17:20.300Z,60.95
2023-01-13T04:19:46.950Z,62.18
2023-01-13T04:22:13.408Z,61.48
2023-01-13T04:24:39.779Z,62.00
2023-01-13T04:27:06.300Z,61.77
2023-01-13T04:29:32.729Z,64.29
2023-01-13T04:31:59.317Z,61.76
2023-01-13T04:34:28.203Z,60.38
2023-01-13T04:36:54.972Z,61.58
2023-01-13T04:39:21.471Z,59.14
2023-01-13T04:41:59.910Z,60.42
2023-01-13T04:44:27.233Z,61.37
2023-01-13T04:46:53.876Z,61.58
2023-01-13T04:49:20.403Z,60.53
2023-01-13T04:51:46.935Z,59.86
2023-01-13T04:54:13.477Z,61.61
2023-01-13T04:56:40.087Z,61.49
2023-01-13T04:59:06.501Z,62.43
2023-01-13T05:01:33.193Z,61.37
2023-01-13T05:03:59.630Z,60.43
2023-01-13T05:06:26.148Z,58.84
2023-01-13T05:08:52.581Z,59.63
2023-01-13T05:11:37.663Z,59.80
2023-01-13T05:14:22.582Z,60.29
2023-01-13T05:17:00.910Z,59.92
2023-01-13T05:19:32.477Z,59.05
2023-01-13T05:22:18.203Z,59.03
2023-01-13T05:25:03.309Z,58.13
2023-01-13T05:27:31.066Z,56.89
2023-01-13T05:29:57.509Z,57.19
2023-01-13T05:32:24.477Z,56.50
2023-01-13T05:34:50.992Z,56.17
2023-01-13T05:37:17.451Z,56.31
2023-01-13T05:40:02.457Z,55.95
2023-01-13T05:42:47.307Z,56.09
2023-01-13T05:45:13.729Z,55.36
2023-01-13T05:47:40.462Z,54.99
2023-01-13T05:50:07.259Z,54.50
2023-01-13T05:52:33.776Z,54.93
2023-01-13T05:55:00.361Z,55.79
2023-01-13T05:57:26.785Z,54.88
2023-01-13T05:59:53.242Z,54.82
2023-01-13T06:02:19.665Z,54.34
2023-01-13T06:04:46.195Z,54.38
2023-01-13T06:07:12.759Z,54.11
2023-01-13T06:09:39.316Z,55.82
2023-01-13T06:12:06.018Z,55.07
2023-01-13T06:14:41.354Z,55.05
2023-01-13T06:17:08.945Z,55.38
2023-01-13T06:19:35.704Z,55.46
2023-01-13T06:22:23.217Z,55.72
2023-01-13T06:24:51.087Z,56.43
2023-01-13T06:27:18.345Z,56.12
2023-01-13T06:29:44.837Z,55.94
2023-01-13T06:32:18.861Z,55.58
2023-01-13T06:34:51.310Z,56.46
2023-01-13T06:37:23.394Z,56.55
2023-01-13T06:39:49.983Z,57.49
2023-01-13T06:42:35.124Z,57.53
2023-01-13T06:45:01.714Z,57.51
2023-01-13T06:47:28.138Z,57.41
2023-01-13T06:49:54.570Z,57.09
2023-01-13T06:52:21.516Z,56.59
2023-01-13T06:54:48.031Z,57.43
2023-01-13T06:57:14.407Z,57.52
2023-01-13T06:59:40.818Z,58.57
2023-01-13T07:02:07.369Z,57.80
2023-01-13T07:04:33.847Z,57.20
2023-01-13T07:07:00.218Z,57.81
2023-01-13T07:09:26.627Z,57.39
2023-01-13T07:11:53.058Z,57.41
2023-01-13T07:14:38.052Z,57.28
2023-01-13T07:17:04.514Z,58.57
2023-01-13T07:19:31.018Z,59.72
2023-01-13T07:21:57.421Z,60.45
2023-01-13T07:24:23.890Z,58.81
2023-01-13T07:26:51.645Z,59.36
2023-01-13T07:29:18.503Z,59.87
2023-01-13T07:31:45.087Z,60.04
2023-01-13T07:34:11.674Z,60.87
2023-01-13T07:36:39.188Z,60.21
2023-01-13T07:39:05.735Z,60.56
2023-01-13T07:41:50.717Z,61.23
2023-01-13T07:44:17.513Z,61.26
2023-01-13T07:46:43.918Z,60.23
2023-01-13T07:49:10.430Z,61.90
2023-01-13T07:51:40.165Z,61.82
2023-01-13T07:54:07.004Z,61.81
2023-01-13T07:56:33.727Z,61.38
2023-01-13T07:59:01.071Z,60.06
2023-01-13T08:01:28.252Z,59.86
2023-01-13T08:03:56.405Z,60.50
2023-01-13T08:06:23.444Z,63.75
2023-01-13T08:08:50.129Z,63.17
2023-01-13T08:11:16.776Z,64.63
2023-01-13T08:13:43.136Z,63.63
2023-01-13T08:16:12.589Z,62.97
2023-01-13T08:18:39.803Z,62.34
2023-01-13T08:21:11.939Z,63.03
2023-01-13T08:23:38.871Z,68.19
2023-01-13T08:26:08.163Z,68.98
2023-01-13T08:28:35.165Z,73.47
2023-01-13T08:31:04.389Z,74.64
2023-01-13T08:33:31.210Z,73.43
2023-01-13T08:35:57.961Z,73.47
2023-01-13T08:38:24.792Z,71.25
2023-01-13T08:40:51.281Z,72.14
2023-01-13T08:43:17.681Z,72.69
2023-01-13T08:45:44.130Z,71.72
2023-01-13T08:48:10.654Z,71.97
2023-01-13T08:50:37.065Z,70.62
2023-01-13T08:53:03.886Z,71.68
2023-01-13T08:55:30.481Z,72.39
2023-01-13T08:58:14.321Z,71.12
2023-01-13T09:00:42.246Z,72.00
2023-01-13T09:03:08.696Z,72.01
2023-01-13T09:05:35.766Z,73.59
2023-01-13T09:08:02.402Z,73.25
2023-01-13T09:10:28.936Z,73.87
2023-01-13T09:13:13.793Z,73.59
2023-01-13T09:15:43.636Z,74.34
2023-01-13T09:18:10.551Z,72.83
2023-01-13T09:20:37.948Z,74.29
2023-01-13T09:23:06.494Z,74.89
2023-01-13T09:25:36.560Z,74.56
2023-01-13T09:28:04.886Z,74.22
2023-01-13T09:30:31.794Z,74.92
2023-01-13T09:33:17.737Z,73.63
2023-01-13T09:35:44.341Z,73.11
2023-01-13T09:38:10.722Z,77.47
2023-01-13T09:40:39.616Z,76.67
2023-01-13T09:43:39.810Z,74.92
2023-01-13T09:46:44.095Z,74.44
2023-01-13T09:49:32.943Z,75.50
2023-01-13T09:52:14.984Z,75.64
2023-01-13T09:54:48.624Z,74.77
2023-01-13T09:57:16.964Z,72.24
2023-01-13T09:59:44.176Z,74.46
2023-01-13T10:02:35.409Z,78.46
2023-01-13T10:05:27.866Z,74.78
2023-01-13T10:07:59.221Z,74.50
2023-01-13T10:10:39.817Z,74.74
2023-01-13T10:13:20.255Z,74.45
2023-01-13T10:16:02.756Z,75.73
2023-01-13T10:18:37.633Z,74.48
2023-01-13T10:21:24.538Z,71.43
2023-01-13T10:23:58.276Z,73.05
2023-01-13T10:26:57.018Z,71.48
2023-01-13T10:29:28.468Z,71.70
2023-01-13T10:31:56.361Z,71.29
2023-01-13T10:34:23.840Z,72.03
2023-01-13T10:37:00.619Z,71.29
2023-01-13T10:39:27.763Z,68.71
2023-01-13T10:42:02.841Z,69.60
2023-01-13T10:44:47.434Z,68.74
2023-01-13T10:47:47.531Z,65.80
2023-01-13T10:50:13.938Z,68.67
2023-01-13T10:53:01.705Z,69.14
2023-01-13T10:55:38.167Z,71.54
2023-01-13T10:58:20.984Z,70.36
2023-01-13T11:00:49.261Z,70.00
2023-01-13T11:03:23.128Z,69.19
2023-01-13T11:05:59.170Z,70.98
2023-01-13T11:08:43.213Z,70.09
2023-01-13T11:11:27.295Z,71.84
2023-01-13T11:14:16.215Z,75.55
2023-01-13T11:16:53.030Z,75.94
2023-01-13T11:19:27.649Z,77.16
2023-01-13T11:22:15.425Z,77.28
2023-01-13T11:24:51.331Z,75.50
2023-01-13T11:27:24.228Z,74.69
2023-01-13T11:30:18.687Z,73.96
2023-01-13T11:33:09.948Z,76.39
2023-01-13T11:35:43.641Z,76.63
2023-01-13T11:38:52.190Z,76.53
2023-01-13T11:41:42.544Z,78.87
2023-01-13T11:44:25.728Z,77.31
2023-01-13T11:46:53.642Z,78.69
2023-01-13T11:49:29.393Z,76.38
2023-01-13T11:52:15.259Z,77.67
2023-01-13T11:55:01.241Z,78.69
2023-01-13T11:58:05.290Z,76.19
2023-01-13T12:00:56.773Z,74.97
2023-01-13T12:03:31.197Z,73.73
2023-01-13T12:21:59.271Z,71.85
2023-01-13T12:24:53.177Z,70.05
2023-01-13T12:28:04.612Z,71.30
2023-01-13T12:30:44.480Z,70.15
2023-01-13T12:33:24.491Z,68.08
2023-01-13T12:40:01.099Z,67.23
2023-01-13T12:42:56.848Z,68.28
2023-01-13T12:45:28.975Z,68.16
2023-01-13T12:52:22.153Z,68.31
2023-01-13T12:58:29.708Z,67.22
2023-01-13T13:01:32.011Z,67.14
2023-01-13T13:04:21.795Z,69.01
2023-01-13T13:07:10.231Z,67.28
2023-01-13T13:09:52.230Z,69.47
2023-01-13T13:13:00.749Z,68.92
2023-01-13T13:15:29.421Z,68.62
2023-01-13T13:18:17.130Z,70.63
2023-01-13T13:21:06.921Z,69.50
2023-01-13T13:23:33.274Z,67.63
2023-01-13T13:26:17.407Z,66.74
2023-01-13T13:28:59.007Z,66.45
2023-01-13T13:31:33.537Z,65.42
2023-01-13T13:34:20.411Z,65.43
2023-01-13T13:38:00.158Z,64.65
2023-01-13T13:40:50.069Z,63.28
2023-01-13T13:43:36.301Z,62.41
2023-01-13T13:46:21.306Z,61.62
2023-01-13T13:48:53.868Z,61.96
2023-01-13T13:51:27.879Z,62.59
2023-01-13T13:53:55.843Z,63.75
2023-01-13T13:56:24.099Z,63.00
2023-01-13T13:58:52.299Z,63.57
2023-01-13T14:01:28.415Z,64.74
2023-01-13T14:04:23.413Z,64.95
2023-01-13T14:07:00.675Z,67.45
2023-01-13T14:09:28.769Z,65.32
2023-01-13T14:12:03.771Z,66.02
2023-01-13T14:14:30.458Z,66.21
2023-01-13T14:16:57.078Z,67.15
2023-01-13T14:19:31.062Z,66.71
2023-01-13T14:22:01.250Z,67.95
2023-01-13T14:24:29.554Z,65.46
2023-01-13T14:27:15.346Z,66.22
2023-01-13T14:29:42.098Z,66.09
2023-01-13T14:32:09.139Z,64.55
2023-01-13T14:34:36.224Z,65.18
2023-01-13T14:37:03.096Z,63.25
2023-01-13T14:39:39.611Z,63.03
2023-01-13T14:42:12.304Z,61.04
2023-01-13T14:44:45.507Z,60.52
2023-01-13T14:47:28.003Z,60.67
2023-01-13T14:50:03.821Z,63.62
2023-01-13T14:52:36.481Z,62.84
2023-01-13T14:55:05.690Z,62.38
2023-01-13T14:57:37.009Z,62.38
2023-01-13T15:00:15.372Z,60.92
2023-01-13T15:02:57.192Z,63.30
2023-01-13T15:05:33.920Z,63.98
2023-01-13T15:08:05.222Z,65.62
2023-01-13T15:10:46.360Z,64.35
2023-01-13T15:13:48.056Z,63.87
2023-01-13T15:16:24.849Z,64.92
2023-01-13T15:18:52.235Z,63.82
2023-01-13T15:21:18.836Z,62.68
2023-01-13T15:23:47.193Z,61.54
2023-01-13T15:26:23.009Z,61.95
2023-01-13T15:28:50.678Z,61.32
2023-01-13T15:31:17.960Z,62.90
2023-01-13T15:33:44.464Z,63.28
2023-01-13T15:36:29.031Z,63.37
2023-01-13T15:38:55.808Z,63.93
2023-01-13T15:41:41.160Z,62.65
2023-01-13T15:44:29.107Z,62.00
2023-01-13T15:46:56.407Z,61.56
2023-01-13T15:49:44.086Z,61.72
2023-01-13T15:52:22.921Z,60.55
2023-01-13T15:54:50.573Z,61.13
2023-01-13T15:57:23.363Z,62.87
2023-01-13T15:59:51.794Z,62.50
2023-01-13T16:02:18.485Z,62.21
2023-01-13T16:04:45.670Z,62.59
2023-01-13T16:07:17.187Z,61.28
2023-01-13T16:09:44.957Z,62.47
2023-01-13T16:12:12.625Z,61.64
2023-01-13T16:14:39.474Z,62.61
2023-01-13T16:17:20.798Z,61.64
2023-01-13T16:19:47.566Z,61.34
2023-01-13T16:22:15.440Z,61.66
2023-01-13T16:24:42.208Z,62.04
2023-01-13T16:27:20.127Z,62.01
2023-01-13T16:29:47.567Z,61.98
2023-01-13T16:32:14.334Z,61.75
2023-01-13T16:34:40.809Z,63.28
2023-01-13T16:37:20.614Z,62.24
2023-01-13T16:39:47.530Z,61.79
2023-01-13T16:42:14.327Z,62.53
2023-01-13T16:44:41.049Z,62.61
2023-01-13T16:50:46.314Z,64.30
2023-01-13T16:53:12.737Z,64.18
2023-01-13T16:55:40.766Z,64.45
2023-01-13T16:58:17.113Z,63.21
2023-01-13T17:00:46.833Z,63.48
2023-01-13T17:03:14.886Z,63.22
2023-01-13T17:05:43.100Z,62.56
2023-01-13T17:08:17.213Z,62.37
2023-01-13T17:10:45.376Z,62.70
2023-01-13T17:13:16.430Z,63.68
2023-01-13T17:15:43.428Z,64.44
2023-01-13T17:18:58.939Z,67.34
2023-01-13T17:21:25.365Z,71.14
2023-01-13T17:23:53.230Z,70.83
2023-01-13T17:26:32.098Z,73.91
2023-01-13T17:29:00.388Z,74.36
2023-01-13T17:31:28.063Z,75.68
2023-01-13T17:33:54.682Z,74.81
2023-01-13T17:36:21.235Z,76.25
2023-01-13T17:38:47.621Z,76.19
2023-01-13T17:41:14.080Z,75.81
2023-01-13T17:43:40.513Z,76.92
2023-01-13T17:46:11.578Z,76.84
2023-01-13T17:48:38.441Z,76.61
2023-01-13T17:51:09.365Z,76.68
2023-01-13T17:53:35.868Z,76.49
2023-01-13T17:56:02.249Z,76.32
2023-01-13T17:58:28.652Z,76.69
2023-01-13T18:00:55.059Z,74.81
2023-01-13T18:03:21.534Z,73.80
2023-01-13T18:05:47.958Z,73.83
2023-01-13T18:08:14.470Z,74.41
2023-01-13T18:10:40.872Z,73.47
2023-01-13T18:13:09.300Z,74.13
2023-01-13T18:15:36.015Z,73.48
2023-01-13T18:18:02.403Z,74.37
2023-01-13T18:20:47.341Z,73.75
2023-01-13T18:23:37.195Z,74.52
2023-01-13T18:26:34.535Z,73.87
2023-01-13T18:29:01.189Z,74.66
2023-01-13T18:31:28.276Z,75.40
2023-01-13T18:33:54.708Z,75.50
2023-01-13T18:36:21.366Z,75.58
2023-01-13T18:38:49.889Z,76.94
2023-01-13T18:41:35.053Z,75.81
2023-01-13T18:44:01.453Z,74.57
2023-01-13T18:46:27.993Z,75.90
2023-01-13T18:48:54.367Z,76.64
2023-01-13T18:51:20.777Z,76.90
2023-01-13T18:53:47.464Z,76.13
2023-01-13T18:56:14.222Z,77.06
2023-01-13T18:58:52.036Z,74.86
2023-01-13T19:01:26.675Z,75.80
2023-01-13T19:03:54.522Z,74.71
2023-01-13T19:06:21.277Z,76.23
2023-01-13T19:08:53.010Z,77.82
2023-01-13T19:11:21.486Z,76.78
2023-01-13T19:13:48.619Z,76.99
2023-01-13T19:16:16.108Z,75.73
2023-01-13T19:18:42.908Z,76.08
2023-01-13T19:21:09.597Z,77.68
2023-01-13T19:23:36.731Z,77.00
2023-01-13T19:26:05.902Z,77.06
2023-01-13T19:28:32.544Z,77.80
2023-01-13T19:31:01.479Z,76.19
2023-01-13T19:33:33.208Z,75.91
2023-01-13T19:35:59.797Z,76.11
2023-01-13T19:38:27.899Z,75.18
2023-01-13T19:41:02.399Z,74.07
2023-01-13T19:43:57.989Z,75.22
2023-01-13T19:46:26.096Z,75.16
2023-01-13T19:48:52.665Z,76.94
2023-01-13T19:51:19.153Z,76.49
2023-01-13T19:53:46.828Z,76.34
2023-01-13T19:56:14.478Z,75.90
2023-01-13T19:58:41.975Z,75.16
2023-01-13T20:01:10.262Z,75.61
2023-01-13T20:03:37.710Z,76.09
2023-01-13T20:06:08.855Z,74.98
2023-01-13T20:08:35.452Z,75.45
2023-01-13T20:11:21.526Z,74.63
2023-01-13T20:13:49.155Z,74.80
2023-01-13T20:16:15.611Z,75.92
2023-01-13T20:18:42.040Z,75.91
2023-01-13T20:21:09.906Z,77.61
2023-01-13T20:23:36.353Z,77.87
2023-01-13T20:26:07.568Z,77.73
2023-01-13T20:28:37.369Z,78.70
2023-01-13T20:31:08.243Z,78.61
2023-01-13T20:33:34.712Z,77.28
2023-01-13T20:36:01.687Z,77.17
2023-01-13T20:38:28.692Z,77.26
2023-01-13T20:40:59.490Z,77.25
2023-01-13T20:43:26.956Z,77.13
2023-01-13T20:45:54.163Z,76.27
2023-01-13T20:48:20.747Z,75.10
2023-01-13T20:50:53.164Z,76.25
2023-01-13T20:53:19.858Z,77.52
2023-01-13T20:55:46.266Z,77.88
2023-01-13T20:58:12.659Z,78.30
2023-01-13T21:00:39.123Z,76.89
2023-01-13T21:03:05.494Z,77.12
2023-01-13T21:05:33.267Z,77.43
2023-01-13T21:07:59.831Z,77.29
2023-01-13T21:10:26.414Z,77.41
2023-01-13T21:13:11.462Z,76.24
2023-01-13T21:15:38.008Z,76.00
2023-01-13T21:18:23.126Z,74.44
2023-01-13T21:20:51.539Z,74.27
2023-01-13T21:23:17.970Z,73.71
2023-01-13T21:25:44.351Z,72.62
2023-01-13T21:28:12.021Z,73.36
2023-01-13T21:30:39.104Z,72.93
2023-01-13T21:33:06.139Z,71.73
2023-01-13T21:35:32.603Z,70.68
2023-01-13T21:37:59.022Z,71.73
2023-01-13T21:40:25.462Z,72.69
2023-01-13T21:43:10.558Z,71.41
2023-01-13T21:45:57.607Z,70.92
2023-01-13T21:48:24.120Z,71.43
2023-01-13T21:50:50.627Z,69.22
2023-01-13T21:53:16.985Z,70.93
2023-01-13T21:55:43.496Z,71.31
2023-01-13T21:58:14.370Z,70.90
2023-01-13T22:00:43.566Z,72.46
2023-01-13T22:03:12.006Z,73.81
2023-01-13T22:05:38.556Z,72.02
2023-01-13T22:08:06.356Z,71.31
2023-01-13T22:10:33.453Z,70.42
2023-01-13T22:13:20.388Z,72.61
2023-01-13T22:15:46.966Z,72.29
2023-01-13T22:18:13.519Z,73.96
2023-01-13T22:20:41.343Z,73.79
2023-01-13T22:23:07.784Z,72.81
2023-01-13T22:25:34.185Z,71.41
2023-01-13T22:28:03.708Z,72.40
2023-01-13T22:30:32.483Z,72.32
2023-01-13T22:32:59.772Z,71.54
2023-01-13T22:35:26.151Z,70.60
2023-01-13T22:37:52.517Z,71.28
2023-01-13T22:40:19.011Z,70.26
2023-01-13T22:42:45.531Z,69.28
2023-01-13T22:45:13.843Z,68.86
2023-01-13T22:47:40.477Z,70.62
2023-01-13T22:50:08.042Z,69.68
2023-01-13T22:52:34.908Z,70.10
2023-01-13T22:55:01.637Z,69.98
2023-01-13T22:57:47.598Z,69.33
2023-01-13T23:00:16.235Z,68.52
2023-01-13T23:02:42.752Z,70.32
2023-01-13T23:05:09.373Z,71.93
2023-01-13T23:07:36.156Z,70.29
2023-01-13T23:10:03.776Z,71.44
2023-01-13T23:12:30.213Z,70.42
2023-01-13T23:14:56.598Z,71.33
2023-01-13T23:17:23.042Z,70.91
2023-01-13T23:19:49.382Z,72.79
2023-01-13T23:22:15.844Z,73.30
2023-01-13T23:24:42.225Z,73.56
2023-01-13T23:27:08.633Z,73.59
2023-01-13T23:29:35.045Z,73.41
2023-01-13T23:32:01.387Z,72.28
2023-01-13T23:34:27.904Z,72.88
2023-01-13T23:36:54.352Z,72.55
2023-01-13T23:39:20.717Z,73.46
2023-01-13T23:41:47.045Z,73.05
2023-01-13T23:44:13.459Z,73.49
2023-01-13T23:46:39.867Z,72.63
2023-01-13T23:49:06.345Z,72.49
2023-01-13T23:51:33.138Z,73.42
2023-01-13T23:53:59.834Z,73.75
2023-01-13T23:56:29.075Z,73.25
2023-01-13T23:58:56.420Z,73.01
